createdAt,value
2022-08-30T00:02:37.020Z,15.09
2022-08-30T00:05:25.717Z,15.05
2022-08-30T00:08:13.962Z,15.00
2022-08-30T00:11:02.209Z,14.96
2022-08-30T00:13:52.505Z,14.90
2022-08-30T00:16:39.933Z,14.85
2022-08-30T00:19:29.216Z,14.76
2022-08-30T00:25:24.734Z,14.65
2022-08-30T00:45:18.001Z,14.63
2022-08-30T00:48:13.604Z,14.62
2022-08-30T00:51:08.966Z,14.60
2022-08-30T00:53:58.676Z,14.59
2022-08-30T00:56:48.271Z,14.53
2022-08-30T00:59:36.483Z,14.50
2022-08-30T01:02:26.568Z,14.48
2022-08-30T01:08:21.561Z,14.45
2022-08-30T01:14:17.408Z,14.45
2022-08-30T01:17:05.003Z,14.46
2022-08-30T01:19:59.773Z,14.49
2022-08-30T01:22:59.253Z,14.55
2022-08-30T01:25:50.822Z,14.61
2022-08-30T01:28:38.469Z,14.63
2022-08-30T01:31:27.415Z,14.66
2022-08-30T01:37:33.171Z,14.68
2022-08-30T01:40:21.837Z,14.72
2022-08-30T01:43:09.861Z,14.78
2022-08-30T01:49:01.826Z,14.80
2022-08-30T01:51:49.509Z,14.81
2022-08-30T01:54:49.227Z,14.82
2022-08-30T01:57:38.672Z,14.79
2022-08-30T02:00:25.728Z,14.81
2022-08-30T02:03:14.196Z,14.82
2022-08-30T02:06:05.525Z,14.79
2022-08-30T02:08:53.954Z,14.76
2022-08-30T02:11:41.094Z,14.75
2022-08-30T02:14:30.146Z,14.78
2022-08-30T02:17:19.602Z,14.80
2022-08-30T02:20:08.460Z,14.80
2022-08-30T02:23:01.428Z,14.77
2022-08-30T02:28:55.770Z,14.77
2022-08-30T02:38:02.124Z,14.72
2022-08-30T02:41:00.951Z,14.69
2022-08-30T02:43:49.450Z,14.68
2022-08-30T02:46:36.644Z,14.71
2022-08-30T02:49:33.864Z,14.72
2022-08-30T02:55:26.758Z,14.69
2022-08-30T03:10:38.807Z,14.77
2022-08-30T03:16:32.229Z,14.75
2022-08-30T03:22:26.095Z,14.77
2022-08-30T03:25:14.687Z,14.81
2022-08-30T03:28:01.733Z,14.82
2022-08-30T03:30:49.341Z,14.80
2022-08-30T03:33:36.421Z,14.79
2022-08-30T03:39:29.584Z,14.74
2022-08-30T03:42:16.410Z,14.73
2022-08-30T03:45:05.251Z,14.69
2022-08-30T03:47:52.305Z,14.69
2022-08-30T03:50:40.743Z,14.63
2022-08-30T03:53:27.517Z,14.62
2022-08-30T03:56:16.466Z,14.62
2022-08-30T03:59:03.782Z,14.62
2022-08-30T04:01:50.671Z,14.62
2022-08-30T04:04:37.965Z,14.63
2022-08-30T04:07:25.082Z,14.65
2022-08-30T04:10:12.632Z,14.62
2022-08-30T04:13:02.947Z,14.57
2022-08-30T04:15:50.772Z,14.60
2022-08-30T04:18:38.838Z,14.60
2022-08-30T04:21:25.923Z,14.65
2022-08-30T04:24:13.878Z,14.63
2022-08-30T04:27:02.293Z,14.60
2022-08-30T04:29:53.024Z,14.64
2022-08-30T04:32:45.249Z,14.64
2022-08-30T04:35:32.753Z,14.68
2022-08-30T04:38:22.349Z,14.74
2022-08-30T04:41:15.679Z,14.78
2022-08-30T04:44:05.144Z,14.81
2022-08-30T04:46:55.319Z,14.82
2022-08-30T04:52:48.457Z,14.86
2022-08-30T04:55:37.148Z,14.89
2022-08-30T04:58:25.472Z,14.92
2022-08-30T05:01:15.110Z,14.95
2022-08-30T05:07:13.328Z,14.97
2022-08-30T05:13:07.747Z,14.99
2022-08-30T05:15:55.861Z,14.96
2022-08-30T05:18:43.700Z,14.98
2022-08-30T05:21:32.043Z,14.98
2022-08-30T05:24:20.228Z,15.01
2022-08-30T05:27:08.671Z,15.02
2022-08-30T05:29:58.431Z,15.08
2022-08-30T05:32:46.361Z,15.17
2022-08-30T05:35:36.863Z,15.28
2022-08-30T05:38:27.134Z,15.38
2022-08-30T05:41:14.344Z,15.44
2022-08-30T05:44:04.157Z,15.51
2022-08-30T05:46:51.450Z,15.58
2022-08-30T05:49:38.004Z,15.60
2022-08-30T05:52:30.434Z,15.66
2022-08-30T05:55:21.237Z,15.69
2022-08-30T05:58:08.272Z,15.82
2022-08-30T06:00:55.769Z,15.90
2022-08-30T06:03:45.088Z,15.89
2022-08-30T06:09:40.313Z,16.12
2022-08-30T06:12:28.544Z,16.30
2022-08-30T06:15:17.363Z,16.28
2022-08-30T06:21:23.943Z,16.61
2022-08-30T06:27:20.292Z,17.12
2022-08-30T06:33:17.497Z,17.15
2022-08-30T06:36:06.003Z,17.32
2022-08-30T06:38:54.539Z,17.52
2022-08-30T06:41:42.591Z,17.76
2022-08-30T06:48:14.871Z,17.83
2022-08-30T06:51:15.009Z,17.79
2022-08-30T06:54:03.454Z,17.66
2022-08-30T06:56:59.075Z,17.44
2022-08-30T06:59:48.746Z,17.76
2022-08-30T07:02:37.561Z,17.38
2022-08-30T07:05:25.382Z,17.65
2022-08-30T07:08:14.317Z,17.45
2022-08-30T07:11:01.149Z,17.71
2022-08-30T07:22:58.879Z,17.98
2022-08-30T07:25:56.917Z,17.90
2022-08-30T07:32:38.473Z,17.87
2022-08-30T07:53:20.338Z,18.14
2022-08-30T07:56:10.935Z,17.80
2022-08-30T07:58:58.614Z,18.01
2022-08-30T08:01:48.844Z,18.15
2022-08-30T08:04:40.051Z,18.71
2022-08-30T08:11:01.152Z,19.31
2022-08-30T08:13:53.521Z,19.74
2022-08-30T08:16:43.339Z,19.80
2022-08-30T08:19:32.682Z,20.01
2022-08-30T08:25:55.080Z,19.56
2022-08-30T08:28:42.287Z,19.90
2022-08-30T08:31:34.055Z,19.74
2022-08-30T08:34:36.458Z,19.93
2022-08-30T08:57:57.163Z,19.42
2022-08-30T09:00:52.154Z,19.43
2022-08-30T09:03:39.561Z,19.47
2022-08-30T09:06:49.061Z,19.52
2022-08-30T09:21:42.588Z,20.46
2022-08-30T09:34:45.033Z,22.28
2022-08-30T09:45:49.729Z,23.08
2022-08-30T10:46:41.496Z,25.81
2022-08-30T11:27:00.736Z,20.75
2022-08-30T11:29:56.757Z,21.42
2022-08-30T11:33:02.880Z,21.18
2022-08-30T11:36:04.193Z,21.32
2022-08-30T11:39:46.929Z,20.96
2022-08-30T11:46:55.373Z,21.69
2022-08-30T11:54:40.089Z,21.78
2022-08-30T11:58:20.366Z,21.17
2022-08-30T12:09:02.253Z,20.67
2022-08-30T12:12:00.330Z,20.90
2022-08-30T12:14:54.693Z,20.93
2022-08-30T12:18:20.185Z,20.59
2022-08-30T12:21:27.177Z,20.54
2022-08-30T12:24:21.442Z,20.60
2022-08-30T12:27:24.501Z,20.47
2022-08-30T12:30:14.291Z,20.19
2022-08-30T12:36:23.745Z,20.03
2022-08-30T12:42:22.797Z,20.28
2022-08-30T12:52:31.428Z,20.85
2022-08-30T12:59:03.515Z,21.22
2022-08-30T13:01:56.326Z,21.86
2022-08-30T13:04:58.820Z,21.97
2022-08-30T13:07:54.489Z,21.54
2022-08-30T13:11:32.644Z,21.17
2022-08-30T13:17:45.204Z,21.14
2022-08-30T13:20:32.610Z,21.00
2022-08-30T13:24:08.782Z,21.81
2022-08-30T13:27:02.059Z,21.44
2022-08-30T13:30:56.549Z,21.15
2022-08-30T13:58:29.852Z,20.28
2022-08-30T14:11:33.965Z,20.44
2022-08-30T14:15:06.091Z,20.18
2022-08-30T14:18:11.755Z,20.04
2022-08-30T14:21:18.173Z,20.06
2022-08-30T14:24:20.092Z,20.20
2022-08-30T14:27:09.162Z,20.37
2022-08-30T14:34:37.344Z,20.51
2022-08-30T14:37:24.502Z,20.25
2022-08-30T14:40:15.325Z,20.02
2022-08-30T14:43:02.098Z,19.77
2022-08-30T14:49:02.435Z,19.97
2022-08-30T14:51:53.188Z,20.29
2022-08-30T14:54:55.604Z,20.56
2022-08-30T14:57:51.861Z,20.23
2022-08-30T15:00:40.583Z,19.92
2022-08-30T15:03:29.188Z,19.67
2022-08-30T15:06:17.833Z,19.36
2022-08-30T15:09:11.719Z,19.48
2022-08-30T15:12:03.544Z,19.57
2022-08-30T15:14:51.110Z,19.48
2022-08-30T15:17:37.975Z,19.58
2022-08-30T15:20:27.632Z,19.88
2022-08-30T15:23:16.869Z,19.90
2022-08-30T15:26:08.120Z,19.98
2022-08-30T15:28:56.395Z,19.89
2022-08-30T15:31:45.019Z,19.68
2022-08-30T15:34:32.626Z,19.66
2022-08-30T15:37:23.072Z,19.65
2022-08-30T15:40:11.318Z,19.60
2022-08-30T15:42:59.960Z,19.71
2022-08-30T15:45:48.015Z,19.70
2022-08-30T15:52:07.935Z,19.55
2022-08-30T15:54:55.571Z,19.39
2022-08-30T15:57:43.025Z,19.34
2022-08-30T16:00:31.342Z,19.23
2022-08-30T16:03:18.638Z,19.26
2022-08-30T16:06:12.673Z,19.24
2022-08-30T16:09:01.172Z,19.14
2022-08-30T16:11:50.482Z,19.12
2022-08-30T16:14:43.842Z,19.00
2022-08-30T16:17:33.065Z,18.95
2022-08-30T16:20:20.425Z,18.89
2022-08-30T16:23:15.629Z,18.90
2022-08-30T16:26:04.279Z,18.89
2022-08-30T16:28:52.726Z,18.74
2022-08-30T16:34:49.911Z,18.62
2022-08-30T16:37:38.545Z,18.48
2022-08-30T16:40:27.154Z,18.39
2022-08-30T16:43:15.811Z,18.40
2022-08-30T16:46:03.406Z,18.35
2022-08-30T16:48:50.050Z,18.29
2022-08-30T16:51:39.533Z,18.31
2022-08-30T16:54:27.296Z,18.23
2022-08-30T16:57:14.122Z,18.20
2022-08-30T17:06:13.317Z,17.97
2022-08-30T17:09:01.956Z,17.92
2022-08-30T17:11:50.399Z,17.87
2022-08-30T17:14:39.380Z,17.82
2022-08-30T17:17:30.199Z,17.70
2022-08-30T17:20:18.912Z,17.58
2022-08-30T17:23:06.559Z,17.50
2022-08-30T17:25:56.863Z,17.42
2022-08-30T17:28:44.289Z,17.34
2022-08-30T17:31:32.154Z,17.24
2022-08-30T17:34:24.129Z,17.15
2022-08-30T17:37:14.047Z,17.03
2022-08-30T18:02:43.035Z,16.19
